Neal J. Seago — WDG3267 — position and weather

sailwx.info

Track history (hours):
 
Tides and Currents Weather Stations Pressure Air Temp Water Temp Dewpoint Dewpoint Depression Visibility Wind Speed Wind Dir Waves Ship Positions

Neal J. Seago

Owner: Blessey Enterprises, Inc., Harahan, LA. More information available from US FCC via Universal Licensing System and Coast Guard Vessel Documentation Center.

Last reported at 2017-Dec-17 10:00 UTC. Time now 2017-Dec-17 10:10 UTC.
Position N 29°37' W 095°02'.

Length 22 m; draft 3 m.

Type: Towing. MMSI: 367524270.

Date/timePositionNaut miles runAvg speedWind from/ knotsBaromVisibWave heightAir tempDewpointWater temp
2017-Dec-17 10:00N 29°37' W 095°02'0 0.0
2017-Dec-17 09:30N 29°37' W 095°02'0 0.0
2017-Dec-17 09:00N 29°37' W 095°02'0 0.0
2017-Dec-17 08:30N 29°37' W 095°02'0 0.0
2017-Dec-17 08:00N 29°37' W 095°02'0 0.0
2017-Dec-17 07:30N 29°37' W 095°02'0 0.0
2017-Dec-17 07:00N 29°37' W 095°02'0 0.1
2017-Dec-17 06:30N 29°37' W 095°01'0 0.1
2017-Dec-17 06:00N 29°37' W 095°02'0 0.0
2017-Dec-17 05:30N 29°37' W 095°02'0 0.0
2017-Dec-17 05:00N 29°37' W 095°02'0 0.0
2017-Dec-17 04:30N 29°37' W 095°02'0 0.0
2017-Dec-17 04:00N 29°37' W 095°02'0 0.0
2017-Dec-17 03:30N 29°37' W 095°02'0 0.0
2017-Dec-17 03:00N 29°37' W 095°02'0 0.0
2017-Dec-17 02:30N 29°37' W 095°02'0 0.0
2017-Dec-17 02:00N 29°37' W 095°02'0 0.1
2017-Dec-17 01:30N 29°37' W 095°02'0 0.0
2017-Dec-17 01:00N 29°37' W 095°02'0 0.0
2017-Dec-17 00:30N 29°37' W 095°02'0 0.0
2017-Dec-17 00:00N 29°37' W 095°02'0 0.0
2017-Dec-16 23:30N 29°37' W 095°02'0 0.0
2017-Dec-16 23:00N 29°37' W 095°02'0 0.0
2017-Dec-16 22:30N 29°37' W 095°02'0 0.0
2017-Dec-16 22:00N 29°37' W 095°02'0 0.0
2017-Dec-16 21:30N 29°37' W 095°02'0 0.0
2017-Dec-16 21:00N 29°37' W 095°02'0 0.0
2017-Dec-16 20:30N 29°37' W 095°02'0 0.0
2017-Dec-16 20:00N 29°37' W 095°02'2 3.7
2017-Dec-16 19:30N 29°37' W 094°59'2 3.7
2017-Dec-16 19:00N 29°38' W 094°58'3 5.9
2017-Dec-16 18:30N 29°41' W 094°59'3 5.7
2017-Dec-16 17:55N 29°43' W 095°01'2 5.8
2017-Dec-16 17:30N 29°45' W 095°04'3 0.9
2017-Dec-16 14:35N 29°47' W 095°05'0 0.0
2017-Dec-16 14:23N 29°47' W 095°05'0 0.0
2017-Dec-16 13:59N 29°47' W 095°05'0 0.0
2017-Dec-16 13:30N 29°47' W 095°05'0 0.0
2017-Dec-16 13:00N 29°47' W 095°05'0 0.0
2017-Dec-16 12:27N 29°47' W 095°05'0 0.0
2017-Dec-16 12:00N 29°47' W 095°05'0 0.0
2017-Dec-16 11:25N 29°47' W 095°05'0 0.3
2017-Dec-16 11:00N 29°47' W 095°05'0 0.0
2017-Dec-16 10:09N 29°47' W 095°05'0 0.3
2017-Dec-16 09:48N 29°47' W 095°05'0 0.0
2017-Dec-16 09:30N 29°47' W 095°05'0 0.0
2017-Dec-16 09:00N 29°47' W 095°05'0 0.0
2017-Dec-16 08:21N 29°47' W 095°05'0 0.0
2017-Dec-16 07:53N 29°47' W 095°05'0 0.0
2017-Dec-16 07:30N 29°47' W 095°05'0 0.0
2017-Dec-16 06:57N 29°47' W 095°05'0 0.0
2017-Dec-16 06:16N 29°47' W 095°05'0 0.0
2017-Dec-16 05:15N 29°47' W 095°05'0 0.0
2017-Dec-16 04:13N 29°47' W 095°05'1 0.0
2017-Dec-15 05:44N 29°47' W 095°06'0 0.6
2017-Dec-15 05:30N 29°47' W 095°06'0 0.0
2017-Dec-15 04:59N 29°47' W 095°06'0 0.2
2017-Dec-15 04:25N 29°47' W 095°06'1 1.7
2017-Dec-15 03:44N 29°47' W 095°04'3 0.2
2017-Dec-14 13:45N 29°45' W 095°06'0 0.0
2017-Dec-14 10:35N 29°45' W 095°06'0 0.0
2017-Dec-14 10:28N 29°45' W 095°06'0 0.1
2017-Dec-14 10:00N 29°45' W 095°06'1 2.9
2017-Dec-14 09:30N 29°46' W 095°05'2 2.9
2017-Dec-14 08:58N 29°47' W 095°04'0 0.6
2017-Dec-14 08:15N 29°47' W 095°05'0 0.2
2017-Dec-14 07:55N 29°47' W 095°05'0 0.0
2017-Dec-14 07:30N 29°47' W 095°05'0 0.0
2017-Dec-14 06:58N 29°47' W 095°05'0 0.0
2017-Dec-14 06:30N 29°47' W 095°05'0 0.0
2017-Dec-14 06:00N 29°47' W 095°05'0 0.0
2017-Dec-14 05:29N 29°47' W 095°05'0 0.0
2017-Dec-14 05:00N 29°47' W 095°05'0 0.0
2017-Dec-14 04:27N 29°47' W 095°05'0 0.0
2017-Dec-14 03:59N 29°47' W 095°05'0 0.0
2017-Dec-14 03:30N 29°47' W 095°05'0 0.0
2017-Dec-14 03:00N 29°47' W 095°05'0 0.0
2017-Dec-14 02:30N 29°47' W 095°05'0 0.0
2017-Dec-14 01:59N 29°47' W 095°05'0 0.0
2017-Dec-14 01:29N 29°47' W 095°05'0 0.0
2017-Dec-14 00:59N 29°47' W 095°05'0 0.0
2017-Dec-14 00:10N 29°47' W 095°05'0 0.8
2017-Dec-14 00:00N 29°47' W 095°05'1 0.7
2017-Dec-13 23:09N 29°47' W 095°05'1 1.3
2017-Dec-13 22:41N 29°47' W 095°05'0 0.8
2017-Dec-13 22:30N 29°47' W 095°05'0 0.0
2017-Dec-13 21:32N 29°47' W 095°05'0 0.1
2017-Dec-13 21:28N 29°47' W 095°05'0 0.2
2017-Dec-13 20:58N 29°47' W 095°05'0 0.1
2017-Dec-13 20:30N 29°47' W 095°05'0 0.0
2017-Dec-13 17:47N 29°47' W 095°05'0 0.0
2017-Dec-13 17:28N 29°47' W 095°05'0 0.0
2017-Dec-13 15:03N 29°47' W 095°05'0 0.0
2017-Dec-13 15:00N 29°47' W 095°05'0 0.0
2017-Dec-13 14:29N 29°47' W 095°05'0 0.0
2017-Dec-13 14:00N 29°47' W 095°05'0 0.0
2017-Dec-13 13:30N 29°47' W 095°05'0 0.0
2017-Dec-13 13:00N 29°47' W 095°05'0 0.0
2017-Dec-13 12:30N 29°47' W 095°05'0 0.0
2017-Dec-13 11:54N 29°47' W 095°05'0 0.0
2017-Dec-13 11:27N 29°47' W 095°05'0 0.0
2017-Dec-13 11:00N 29°47' W 095°05'0 0.0
2017-Dec-13 10:29N 29°47' W 095°05'0 0.0
2017-Dec-13 10:00N 29°47' W 095°05'0 0.2
2017-Dec-13 09:09N 29°47' W 095°05'1 0.4
2017-Dec-13 07:04N 29°47' W 095°05'0 4.8
2017-Dec-13 07:00N 29°46' W 095°05'3 5.1
2017-Dec-13 06:29N 29°44' W 095°03'2 4.9
2017-Dec-13 06:00N 29°42' W 095°01'3 5.4
2017-Dec-13 05:30N 29°41' W 094°59'3 6.1
2017-Dec-13 05:00N 29°38' W 094°58'3 6.1
2017-Dec-13 04:30N 29°35' W 094°56'3 6.3
2017-Dec-13 04:00N 29°32' W 094°54'3 6.4
2017-Dec-13 03:30N 29°30' W 094°52'1 0.0
2017-Dec-11 02:41N 29°29' W 094°52'1 6.2
2017-Dec-11 02:29N 29°30' W 094°52'3 6.4
2017-Dec-11 02:00N 29°33' W 094°54'3 6.4
2017-Dec-11 01:30N 29°35' W 094°56'3 6.2
2017-Dec-11 01:00N 29°38' W 094°58'3 6.5
2017-Dec-11 00:30N 29°41' W 094°59'3 5.9
2017-Dec-10 23:59N 29°43' W 095°01'3 6.1
2017-Dec-10 23:27N 29°45' W 095°04'2 1.0
2017-Dec-10 21:34N 29°47' W 095°05'0 0.0
2017-Dec-10 14:51N 29°47' W 095°05'0 0.0
2017-Dec-10 14:30N 29°47' W 095°05'0 0.0
2017-Dec-10 13:58N 29°47' W 095°05'0 0.0
2017-Dec-10 13:23N 29°47' W 095°05'0 0.0
2017-Dec-10 12:54N 29°47' W 095°05'0 0.0
2017-Dec-10 12:15N 29°47' W 095°05'0 0.0
2017-Dec-10 11:52N 29°47' W 095°05'0 0.0
2017-Dec-10 11:28N 29°47' W 095°05'0 0.0
2017-Dec-10 11:00N 29°47' W 095°05'0 0.0
2017-Dec-10 10:25N 29°47' W 095°05'0 0.0
2017-Dec-10 09:46N 29°47' W 095°05'0 0.0
2017-Dec-10 09:29N 29°47' W 095°05'0 0.3
2017-Dec-10 09:00N 29°47' W 095°05'0 0.1
2017-Dec-10 08:23N 29°47' W 095°05'0 0.1
2017-Dec-10 08:00N 29°47' W 095°05'0 0.1
2017-Dec-10 06:16N 29°47' W 095°05'0 0.0
2017-Dec-10 05:12N 29°47' W 095°05'0 0.0
2017-Dec-10 04:55N 29°47' W 095°05'0 0.0
2017-Dec-10 04:29N 29°47' W 095°05'0 0.1
2017-Dec-10 04:00N 29°47' W 095°05'0 0.0
2017-Dec-10 03:30N 29°47' W 095°05'0 0.0
2017-Dec-10 03:00N 29°47' W 095°05'0 0.0
2017-Dec-10 02:30N 29°47' W 095°05'0 0.1
2017-Dec-10 01:52N 29°47' W 095°05'0 0.9
2017-Dec-10 01:28N 29°47' W 095°04'2 3.6
2017-Dec-10 00:59N 29°46' W 095°04'2 5.1
2017-Dec-10 00:30N 29°44' W 095°02'2 4.3
2017-Dec-10 00:00N 29°42' W 095°01'2 4.2
2017-Dec-09 23:30N 29°41' W 094°59'2 4.6
2017-Dec-09 23:00N 29°39' W 094°58'3 5.1
2017-Dec-09 22:30N 29°36' W 094°57'3 5.0
2017-Dec-09 22:00N 29°34' W 094°55'3 5.0
2017-Dec-09 21:30N 29°32' W 094°54'  
2017-Dec-07 12:42N 29°59' W 093°53'0 0.0
2017-Dec-07 12:12N 29°59' W 093°53'0 0.0
2017-Dec-07 11:57N 29°59' W 093°53'  
Track history (hours):
 
Tides and Currents Weather Stations Pressure Air Temp Water Temp Dewpoint Dewpoint Depression Visibility Wind Speed Wind Dir Waves Ship Positions

Neal J. Seago

Owner: Blessey Enterprises, Inc., Harahan, LA. More information available from US FCC via Universal Licensing System and Coast Guard Vessel Documentation Center.

Last reported at 2017-Dec-17 10:00 UTC. Time now 2017-Dec-17 10:10 UTC.
Position N 29°37' W 095°02'.

Length 22 m; draft 3 m.

Type: Towing. MMSI: 367524270.

Date/timePositionNaut miles runAvg speedWind from/ knotsBaromVisibWave heightAir tempDewpointWater temp
2017-Dec-17 10:00N 29°37' W 095°02'0 0.0
2017-Dec-17 09:30N 29°37' W 095°02'0 0.0
2017-Dec-17 09:00N 29°37' W 095°02'0 0.0
2017-Dec-17 08:30N 29°37' W 095°02'0 0.0
2017-Dec-17 08:00N 29°37' W 095°02'0 0.0
2017-Dec-17 07:30N 29°37' W 095°02'0 0.0
2017-Dec-17 07:00N 29°37' W 095°02'0 0.1
2017-Dec-17 06:30N 29°37' W 095°01'0 0.1
2017-Dec-17 06:00N 29°37' W 095°02'0 0.0
2017-Dec-17 05:30N 29°37' W 095°02'0 0.0
2017-Dec-17 05:00N 29°37' W 095°02'0 0.0
2017-Dec-17 04:30N 29°37' W 095°02'0 0.0
2017-Dec-17 04:00N 29°37' W 095°02'0 0.0
2017-Dec-17 03:30N 29°37' W 095°02'0 0.0
2017-Dec-17 03:00N 29°37' W 095°02'0 0.0
2017-Dec-17 02:30N 29°37' W 095°02'0 0.0
2017-Dec-17 02:00N 29°37' W 095°02'0 0.1
2017-Dec-17 01:30N 29°37' W 095°02'0 0.0
2017-Dec-17 01:00N 29°37' W 095°02'0 0.0
2017-Dec-17 00:30N 29°37' W 095°02'0 0.0
2017-Dec-17 00:00N 29°37' W 095°02'0 0.0
2017-Dec-16 23:30N 29°37' W 095°02'0 0.0
2017-Dec-16 23:00N 29°37' W 095°02'0 0.0
2017-Dec-16 22:30N 29°37' W 095°02'0 0.0
2017-Dec-16 22:00N 29°37' W 095°02'0 0.0
2017-Dec-16 21:30N 29°37' W 095°02'0 0.0
2017-Dec-16 21:00N 29°37' W 095°02'0 0.0
2017-Dec-16 20:30N 29°37' W 095°02'0 0.0
2017-Dec-16 20:00N 29°37' W 095°02'2 3.7
2017-Dec-16 19:30N 29°37' W 094°59'2 3.7
2017-Dec-16 19:00N 29°38' W 094°58'3 5.9
2017-Dec-16 18:30N 29°41' W 094°59'3 5.7
2017-Dec-16 17:55N 29°43' W 095°01'2 5.8
2017-Dec-16 17:30N 29°45' W 095°04'3 0.9
2017-Dec-16 14:35N 29°47' W 095°05'0 0.0
2017-Dec-16 14:23N 29°47' W 095°05'0 0.0
2017-Dec-16 13:59N 29°47' W 095°05'0 0.0
2017-Dec-16 13:30N 29°47' W 095°05'0 0.0
2017-Dec-16 13:00N 29°47' W 095°05'0 0.0
2017-Dec-16 12:27N 29°47' W 095°05'0 0.0
2017-Dec-16 12:00N 29°47' W 095°05'0 0.0
2017-Dec-16 11:25N 29°47' W 095°05'0 0.3
2017-Dec-16 11:00N 29°47' W 095°05'0 0.0
2017-Dec-16 10:09N 29°47' W 095°05'0 0.3
2017-Dec-16 09:48N 29°47' W 095°05'0 0.0
2017-Dec-16 09:30N 29°47' W 095°05'0 0.0
2017-Dec-16 09:00N 29°47' W 095°05'0 0.0
2017-Dec-16 08:21N 29°47' W 095°05'0 0.0
2017-Dec-16 07:53N 29°47' W 095°05'0 0.0
2017-Dec-16 07:30N 29°47' W 095°05'0 0.0
2017-Dec-16 06:57N 29°47' W 095°05'0 0.0
2017-Dec-16 06:16N 29°47' W 095°05'0 0.0
2017-Dec-16 05:15N 29°47' W 095°05'0 0.0
2017-Dec-16 04:13N 29°47' W 095°05'1 0.0
2017-Dec-15 05:44N 29°47' W 095°06'0 0.6
2017-Dec-15 05:30N 29°47' W 095°06'0 0.0
2017-Dec-15 04:59N 29°47' W 095°06'0 0.2
2017-Dec-15 04:25N 29°47' W 095°06'1 1.7
2017-Dec-15 03:44N 29°47' W 095°04'3 0.2
2017-Dec-14 13:45N 29°45' W 095°06'0 0.0
2017-Dec-14 10:35N 29°45' W 095°06'0 0.0
2017-Dec-14 10:28N 29°45' W 095°06'0 0.1
2017-Dec-14 10:00N 29°45' W 095°06'1 2.9
2017-Dec-14 09:30N 29°46' W 095°05'2 2.9
2017-Dec-14 08:58N 29°47' W 095°04'0 0.6
2017-Dec-14 08:15N 29°47' W 095°05'0 0.2
2017-Dec-14 07:55N 29°47' W 095°05'0 0.0
2017-Dec-14 07:30N 29°47' W 095°05'0 0.0
2017-Dec-14 06:58N 29°47' W 095°05'0 0.0
2017-Dec-14 06:30N 29°47' W 095°05'0 0.0
2017-Dec-14 06:00N 29°47' W 095°05'0 0.0
2017-Dec-14 05:29N 29°47' W 095°05'0 0.0
2017-Dec-14 05:00N 29°47' W 095°05'0 0.0
2017-Dec-14 04:27N 29°47' W 095°05'0 0.0
2017-Dec-14 03:59N 29°47' W 095°05'0 0.0
2017-Dec-14 03:30N 29°47' W 095°05'0 0.0
2017-Dec-14 03:00N 29°47' W 095°05'0 0.0
2017-Dec-14 02:30N 29°47' W 095°05'0 0.0
2017-Dec-14 01:59N 29°47' W 095°05'0 0.0
2017-Dec-14 01:29N 29°47' W 095°05'0 0.0
2017-Dec-14 00:59N 29°47' W 095°05'0 0.0
2017-Dec-14 00:10N 29°47' W 095°05'0 0.8
2017-Dec-14 00:00N 29°47' W 095°05'1 0.7
2017-Dec-13 23:09N 29°47' W 095°05'1 1.3
2017-Dec-13 22:41N 29°47' W 095°05'0 0.8
2017-Dec-13 22:30N 29°47' W 095°05'0 0.0
2017-Dec-13 21:32N 29°47' W 095°05'0 0.1
2017-Dec-13 21:28N 29°47' W 095°05'0 0.2
2017-Dec-13 20:58N 29°47' W 095°05'0 0.1
2017-Dec-13 20:30N 29°47' W 095°05'0 0.0
2017-Dec-13 17:47N 29°47' W 095°05'0 0.0
2017-Dec-13 17:28N 29°47' W 095°05'0 0.0
2017-Dec-13 15:03N 29°47' W 095°05'0 0.0
2017-Dec-13 15:00N 29°47' W 095°05'0 0.0
2017-Dec-13 14:29N 29°47' W 095°05'0 0.0
2017-Dec-13 14:00N 29°47' W 095°05'0 0.0
2017-Dec-13 13:30N 29°47' W 095°05'0 0.0
2017-Dec-13 13:00N 29°47' W 095°05'0 0.0
2017-Dec-13 12:30N 29°47' W 095°05'0 0.0
2017-Dec-13 11:54N 29°47' W 095°05'0 0.0
2017-Dec-13 11:27N 29°47' W 095°05'0 0.0
2017-Dec-13 11:00N 29°47' W 095°05'0 0.0
2017-Dec-13 10:29N 29°47' W 095°05'0 0.0
2017-Dec-13 10:00N 29°47' W 095°05'0 0.2
2017-Dec-13 09:09N 29°47' W 095°05'1 0.4
2017-Dec-13 07:04N 29°47' W 095°05'0 4.8
2017-Dec-13 07:00N 29°46' W 095°05'3 5.1
2017-Dec-13 06:29N 29°44' W 095°03'2 4.9
2017-Dec-13 06:00N 29°42' W 095°01'3 5.4
2017-Dec-13 05:30N 29°41' W 094°59'3 6.1
2017-Dec-13 05:00N 29°38' W 094°58'3 6.1
2017-Dec-13 04:30N 29°35' W 094°56'3 6.3
2017-Dec-13 04:00N 29°32' W 094°54'3 6.4
2017-Dec-13 03:30N 29°30' W 094°52'1 0.0
2017-Dec-11 02:41N 29°29' W 094°52'1 6.2
2017-Dec-11 02:29N 29°30' W 094°52'3 6.4
2017-Dec-11 02:00N 29°33' W 094°54'3 6.4
2017-Dec-11 01:30N 29°35' W 094°56'3 6.2
2017-Dec-11 01:00N 29°38' W 094°58'3 6.5
2017-Dec-11 00:30N 29°41' W 094°59'3 5.9
2017-Dec-10 23:59N 29°43' W 095°01'3 6.1
2017-Dec-10 23:27N 29°45' W 095°04'2 1.0
2017-Dec-10 21:34N 29°47' W 095°05'0 0.0
2017-Dec-10 14:51N 29°47' W 095°05'0 0.0
2017-Dec-10 14:30N 29°47' W 095°05'0 0.0
2017-Dec-10 13:58N 29°47' W 095°05'0 0.0
2017-Dec-10 13:23N 29°47' W 095°05'0 0.0
2017-Dec-10 12:54N 29°47' W 095°05'0 0.0
2017-Dec-10 12:15N 29°47' W 095°05'0 0.0
2017-Dec-10 11:52N 29°47' W 095°05'0 0.0
2017-Dec-10 11:28N 29°47' W 095°05'0 0.0
2017-Dec-10 11:00N 29°47' W 095°05'0 0.0
2017-Dec-10 10:25N 29°47' W 095°05'0 0.0
2017-Dec-10 09:46N 29°47' W 095°05'0 0.0
2017-Dec-10 09:29N 29°47' W 095°05'0 0.3
2017-Dec-10 09:00N 29°47' W 095°05'0 0.1
2017-Dec-10 08:23N 29°47' W 095°05'0 0.1
2017-Dec-10 08:00N 29°47' W 095°05'0 0.1
2017-Dec-10 06:16N 29°47' W 095°05'0 0.0
2017-Dec-10 05:12N 29°47' W 095°05'0 0.0
2017-Dec-10 04:55N 29°47' W 095°05'0 0.0
2017-Dec-10 04:29N 29°47' W 095°05'0 0.1
2017-Dec-10 04:00N 29°47' W 095°05'0 0.0
2017-Dec-10 03:30N 29°47' W 095°05'0 0.0
2017-Dec-10 03:00N 29°47' W 095°05'0 0.0
2017-Dec-10 02:30N 29°47' W 095°05'0 0.1
2017-Dec-10 01:52N 29°47' W 095°05'0 0.9
2017-Dec-10 01:28N 29°47' W 095°04'2 3.6
2017-Dec-10 00:59N 29°46' W 095°04'2 5.1
2017-Dec-10 00:30N 29°44' W 095°02'2 4.3
2017-Dec-10 00:00N 29°42' W 095°01'2 4.2
2017-Dec-09 23:30N 29°41' W 094°59'2 4.6
2017-Dec-09 23:00N 29°39' W 094°58'3 5.1
2017-Dec-09 22:30N 29°36' W 094°57'3 5.0
2017-Dec-09 22:00N 29°34' W 094°55'3 5.0
2017-Dec-09 21:30N 29°32' W 094°54'  
2017-Dec-07 12:42N 29°59' W 093°53'0 0.0
2017-Dec-07 12:12N 29°59' W 093°53'0 0.0
2017-Dec-07 11:57N 29°59' W 093°53'  

Dump ship's entire track history